Time;durP1;ratioP1;P1;durP2;ratioP2;P2;SDS_P1;SDS_P2;PMS_P1;PMS_P2;Temp;Humidity;BMP_temperature;BMP_pressure;BME280_temperature;BME280_humidity;BME280_pressure;Samples;Min_cycle;Max_cycle;Signal;HPM_P1;HPM_P2
2021/05/27 00:01:22;;;;;;;2.42;1.00;;;;;;;;;;5052741;28;20466;-59
2021/05/27 00:03:55;;;;;;;2.50;0.98;;;;;;;;;;5052860;28;20043;-58
2021/05/27 00:06:24;;;;;;;3.53;1.05;;;;;;;;;;5052844;28;20091;-59
2021/05/27 00:08:58;;;;;;;1.27;0.70;;;;;;;;;;5052818;28;20029;-58
2021/05/27 00:11:27;;;;;;;4.60;1.23;;;;;;;;;;5052895;28;20091;-58
2021/05/27 00:13:54;;;;;;;1.73;1.00;;;;;;;;;;5052670;28;20384;-58
2021/05/27 00:16:24;;;;;;;2.10;1.15;;;;;;;;;;5035492;28;20382;-58
2021/05/27 00:18:52;;;;;;;1.90;1.10;;;;;;;;;;5054757;28;20029;-58
2021/05/27 00:21:21;;;;;;;2.72;0.85;;;;;;;;;;5056389;28;20356;-58
2021/05/27 00:24:03;;;;;;;;;;;;;;;;;;;;;
2021/05/27 00:26:43;;;;;;;1.92;1.20;;;;;;;;;;5050093;28;20033;-58
2021/05/27 00:29:20;;;;;;;4.38;1.23;;;;;;;;;;5038078;28;20394;-58
2021/05/27 00:31:49;;;;;;;2.80;1.83;;;;;;;;;;5056007;28;20024;-58
2021/05/27 00:34:36;;;;;;;1.60;0.95;;;;;;;;;;5055919;28;20060;-58
2021/05/27 00:37:10;;;;;;;2.95;1.13;;;;;;;;;;5038521;28;20029;-59
2021/05/27 00:39:36;;;;;;;2.05;1.15;;;;;;;;;;5056677;28;20094;-59
2021/05/27 00:42:05;;;;;;;2.88;1.13;;;;;;;;;;5055728;28;20059;-59
2021/05/27 00:44:35;;;;;;;1.55;0.88;;;;;;;;;;5055940;28;20025;-58
2021/05/27 00:47:06;;;;;;;2.40;1.25;;;;;;;;;;5034497;28;20409;-59
2021/05/27 00:49:38;;;;;;;5.47;1.75;;;;;;;;;;5034449;28;20030;-59
2021/05/27 00:52:07;;;;;;;2.25;1.35;;;;;;;;;;5036292;28;20026;-58
2021/05/27 00:54:42;;;;;;;6.70;1.27;;;;;;;;;;5036625;28;20052;-58
2021/05/27 00:57:15;;;;;;;2.08;1.25;;;;;;;;;;5035163;28;20383;-59
2021/05/27 00:59:46;;;;;;;1.92;1.20;;;;;;;;;;5036367;28;20058;-58
2021/05/27 01:02:18;;;;;;;2.30;1.30;;;;;;;;;;5034771;28;20026;-59
2021/05/27 01:04:44;;;;;;;3.38;1.75;;;;;;;;;;5035747;28;20033;-59
2021/05/27 01:07:13;;;;;;;2.80;1.77;;;;;;;;;;5036133;28;20399;-59
2021/05/27 01:10:02;;;;;;;3.42;1.23;;;;;;;;;;5034730;28;20176;-59
2021/05/27 01:12:29;;;;;;;1.98;1.17;;;;;;;;;;5035910;28;20097;-59
2021/05/27 01:18:09;;;;;;;2.50;1.42;;;;;;;;;;5035607;28;20045;-59
2021/05/27 01:20:36;;;;;;;2.25;1.33;;;;;;;;;;5034334;28;20043;-58
2021/05/27 01:23:14;;;;;;;;;;;;;;;;;;;;;
2021/05/27 01:25:41;;;;;;;1.90;1.27;;;;;;;;;;5036090;28;20030;-58
2021/05/27 01:28:23;;;;;;;2.65;1.15;;;;;;;;;;5033752;28;20110;-58
2021/05/27 01:30:53;;;;;;;2.78;1.33;;;;;;;;;;5034063;28;20028;-58
2021/05/27 01:33:25;;;;;;;2.50;1.20;;;;;;;;;;5035166;28;20029;-59
2021/05/27 01:36:13;;;;;;;2.17;1.17;;;;;;;;;;5034351;28;20444;-59
2021/05/27 01:38:44;;;;;;;2.33;1.30;;;;;;;;;;5035569;28;20040;-58
2021/05/27 01:41:26;;;;;;;3.38;1.67;;;;;;;;;;5033418;28;20033;-58
2021/05/27 01:43:52;;;;;;;;;;;;;;;;;;5035113;28;20029;-58
2021/05/27 01:46:21;;;;;;;2.42;1.35;;;;;;;;;;5038224;28;20019;-58
2021/05/27 01:48:47;;;;;;;2.13;1.38;;;;;;;;;;5052535;28;20077;-58
2021/05/27 01:51:25;;;;;;;2.13;1.25;;;;;;;;;;5054569;28;20025;-58
2021/05/27 01:53:54;;;;;;;2.10;1.25;;;;;;;;;;5036396;28;20415;-58
2021/05/27 01:56:27;;;;;;;3.80;1.65;;;;;;;;;;5054676;28;20378;-58
2021/05/27 01:58:56;;;;;;;3.00;1.42;;;;;;;;;;5037063;28;20195;-58
2021/05/27 02:01:30;;;;;;;3.47;1.52;;;;;;;;;;5055217;28;20028;-58
2021/05/27 02:04:03;;;;;;;3.63;1.27;;;;;;;;;;5036922;28;20032;-58
2021/05/27 02:06:41;;;;;;;2.92;1.67;;;;;;;;;;5054150;28;20090;-58
2021/05/27 02:09:17;;;;;;;6.25;1.88;;;;;;;;;;5055041;28;20151;-58
2021/05/27 02:11:47;;;;;;;3.33;1.77;;;;;;;;;;5055168;28;20024;-58
2021/05/27 02:14:40;;;;;;;2.45;1.58;;;;;;;;;;5054701;28;20029;-58
2021/05/27 02:17:12;;;;;;;2.38;1.65;;;;;;;;;;5036510;28;20056;-58
2021/05/27 02:19:41;;;;;;;2.30;1.23;;;;;;;;;;5054855;28;20025;-58
2021/05/27 02:22:10;;;;;;;3.30;1.48;;;;;;;;;;5036137;28;20067;-58
2021/05/27 02:24:45;;;;;;;2.45;1.67;;;;;;;;;;5053630;28;20017;-58
2021/05/27 02:27:15;;;;;;;2.60;1.92;;;;;;;;;;5053656;28;20471;-57
2021/05/27 02:29:46;;;;;;;3.40;1.88;;;;;;;;;;5054017;28;20017;-58
2021/05/27 02:32:13;;;;;;;3.42;1.63;;;;;;;;;;5036411;28;20505;-58
2021/05/27 02:34:47;;;;;;;4.00;1.52;;;;;;;;;;5054014;28;20056;-58
2021/05/27 02:37:16;;;;;;;2.42;1.50;;;;;;;;;;5054246;28;20029;-58
2021/05/27 02:39:44;;;;;;;2.00;1.40;;;;;;;;;;5052809;28;20052;-58
2021/05/27 02:42:11;;;;;;;2.83;1.83;;;;;;;;;;5069430;28;20048;-59
2021/05/27 02:45:00;;;;;;;2.00;1.40;;;;;;;;;;5053758;28;20053;-59
2021/05/27 02:47:36;;;;;;;5.13;2.08;;;;;;;;;;5053063;28;20048;-58
2021/05/27 02:50:07;;;;;;;3.55;1.65;;;;;;;;;;5035926;28;20035;-59
2021/05/27 02:52:36;;;;;;;2.38;1.42;;;;;;;;;;5054315;28;20047;-58
2021/05/27 02:55:03;;;;;;;2.35;1.65;;;;;;;;;;5035538;28;20057;-58
2021/05/27 02:57:32;;;;;;;3.65;1.67;;;;;;;;;;5053645;28;20557;-58
2021/05/27 03:00:08;;;;;;;3.67;1.83;;;;;;;;;;5054230;28;20037;-58
2021/05/27 03:02:53;;;;;;;2.00;1.27;;;;;;;;;;5053365;28;20022;-58
2021/05/27 03:05:25;;;;;;;2.30;1.13;;;;;;;;;;5053312;28;20517;-59
2021/05/27 03:07:59;;;;;;;2.33;1.50;;;;;;;;;;5068292;28;20037;-59
2021/05/27 03:10:38;;;;;;;;;;;;;;;;;;;;;
2021/05/27 03:13:07;;;;;;;2.03;1.40;;;;;;;;;;5049601;28;20041;-58
2021/05/27 03:15:33;;;;;;;3.03;1.83;;;;;;;;;;5035432;28;20386;-58
2021/05/27 03:18:04;;;;;;;3.13;1.67;;;;;;;;;;5053930;28;20029;-59
2021/05/27 03:20:31;;;;;;;2.20;1.30;;;;;;;;;;5053204;28;20513;-58
2021/05/27 03:23:07;;;;;;;2.58;1.67;;;;;;;;;;5053348;28;20086;-59
2021/05/27 03:25:34;;;;;;;2.20;1.33;;;;;;;;;;5035358;28;20033;-59
2021/05/27 03:28:03;;;;;;;2.47;1.58;;;;;;;;;;5034957;28;20037;-58
2021/05/27 03:30:29;;;;;;;1.92;1.27;;;;;;;;;;5053341;28;20021;-59
2021/05/27 03:33:01;;;;;;;2.78;1.40;;;;;;;;;;5054225;28;20033;-58
2021/05/27 03:35:52;;;;;;;2.90;1.73;;;;;;;;;;5053127;28;20035;-58
2021/05/27 03:38:23;;;;;;;1.95;1.35;;;;;;;;;;5035205;28;20029;-58
2021/05/27 03:40:58;;;;;;;1.70;1.00;;;;;;;;;;5053873;28;20029;-59
2021/05/27 03:43:37;;;;;;;2.10;1.35;;;;;;;;;;5052983;28;20029;-59
2021/05/27 03:46:06;;;;;;;2.92;1.90;;;;;;;;;;5034804;28;20021;-59
2021/05/27 03:48:34;;;;;;;5.60;1.42;;;;;;;;;;5053298;28;20064;-59
2021/05/27 03:51:05;;;;;;;1.83;1.05;;;;;;;;;;5053526;28;20447;-59
2021/05/27 03:53:34;;;;;;;5.18;1.80;;;;;;;;;;5036779;28;20028;-59
2021/05/27 03:56:08;;;;;;;2.22;1.02;;;;;;;;;;5038711;28;20025;-59
2021/05/27 04:01:24;;;;;;;2.42;1.15;;;;;;;;;;5056982;28;20079;-59
2021/05/27 04:09:30;;;;;;;2.97;2.15;;;;;;;;;;5056803;28;20044;-59
2021/05/27 04:17:39;;;;;;;3.63;2.65;;;;;;;;;;5056660;28;20036;-58
2021/05/27 04:20:06;;;;;;;4.47;2.17;;;;;;;;;;5057126;28;20057;-58
2021/05/27 04:22:44;;;;;;;3.22;2.17;;;;;;;;;;5057292;28;20029;-58
2021/05/27 04:25:20;;;;;;;3.03;1.98;;;;;;;;;;5038388;28;20050;-58
2021/05/27 04:27:55;;;;;;;3.38;1.90;;;;;;;;;;5038123;28;20079;-58
2021/05/27 04:30:22;;;;;;;2.47;1.67;;;;;;;;;;5056638;28;20471;-58
2021/05/27 04:33:14;;;;;;;2.85;2.00;;;;;;;;;;5056241;28;20029;-58
2021/05/27 04:35:47;;;;;;;2.78;2.30;;;;;;;;;;5054774;28;20394;-58
2021/05/27 04:38:15;;;;;;;3.47;2.03;;;;;;;;;;5056401;28;20397;-58
2021/05/27 04:40:51;;;;;;;5.55;2.45;;;;;;;;;;5037958;28;20029;-58
2021/05/27 04:43:22;;;;;;;2.30;1.65;;;;;;;;;;5038504;28;20033;-59
2021/05/27 04:45:54;;;;;;;2.65;1.42;;;;;;;;;;5056684;28;20021;-58
2021/05/27 04:48:36;;;;;;;3.17;2.00;;;;;;;;;;5066871;28;20156;-58
2021/05/27 04:51:04;;;;;;;3.58;2.33;;;;;;;;;;5036383;28;20101;-58
2021/05/27 04:53:33;;;;;;;2.58;1.83;;;;;;;;;;5035544;28;20026;-58
2021/05/27 04:56:03;;;;;;;2.80;1.90;;;;;;;;;;5034229;28;20072;-58
2021/05/27 04:58:32;;;;;;;2.67;1.70;;;;;;;;;;5035926;28;20084;-58
2021/05/27 05:01:02;;;;;;;2.80;1.58;;;;;;;;;;5034555;28;20488;-59
2021/05/27 05:03:40;;;;;;;2.50;1.60;;;;;;;;;;5035341;28;20459;-59
2021/05/27 05:06:09;;;;;;;2.03;1.17;;;;;;;;;;5036210;28;20025;-59
2021/05/27 05:08:41;;;;;;;3.55;1.20;;;;;;;;;;5036175;28;20036;-59
2021/05/27 05:11:22;;;;;;;1.63;0.95;;;;;;;;;;5036193;28;20017;-58
2021/05/27 05:13:48;;;;;;;2.47;1.58;;;;;;;;;;5032684;28;20353;-59
2021/05/27 05:16:18;;;;;;;2.28;1.27;;;;;;;;;;5036009;28;20026;-59
2021/05/27 05:18:58;;;;;;;2.50;1.60;;;;;;;;;;5033888;28;20486;-59
2021/05/27 05:21:28;;;;;;;2.25;1.20;;;;;;;;;;5034001;28;20364;-59
2021/05/27 05:23:54;;;;;;;1.60;1.00;;;;;;;;;;5033797;28;20029;-59
2021/05/27 05:26:29;;;;;;;4.18;1.10;;;;;;;;;;5035053;28;20096;-59
2021/05/27 05:28:56;;;;;;;2.05;1.30;;;;;;;;;;5034761;28;20049;-59
2021/05/27 05:31:28;;;;;;;1.95;1.20;;;;;;;;;;5035820;28;20060;-59
2021/05/27 05:34:00;;;;;;;1.50;0.90;;;;;;;;;;5035214;28;20089;-58
2021/05/27 05:36:32;;;;;;;3.10;1.35;;;;;;;;;;5035734;28;20049;-59
2021/05/27 05:38:58;;;;;;;2.85;1.10;;;;;;;;;;5035630;28;20462;-59
2021/05/27 05:41:30;;;;;;;2.13;1.20;;;;;;;;;;5035958;28;20025;-59
2021/05/27 05:44:06;;;;;;;3.88;1.52;;;;;;;;;;5034630;28;20486;-59
2021/05/27 05:46:35;;;;;;;4.40;1.23;;;;;;;;;;5040230;28;20049;-59
2021/05/27 05:49:16;;;;;;;2.63;1.73;;;;;;;;;;5054538;28;20032;-59
2021/05/27 05:51:42;;;;;;;3.55;1.25;;;;;;;;;;5036607;28;20028;-59
2021/05/27 05:54:09;;;;;;;3.33;1.20;;;;;;;;;;5069574;28;20025;-59
2021/05/27 05:56:36;;;;;;;2.22;1.40;;;;;;;;;;5054283;28;20099;-59
2021/05/27 05:59:10;;;;;;;2.60;1.33;;;;;;;;;;5054355;28;20021;-59
2021/05/27 06:01:39;;;;;;;1.80;0.95;;;;;;;;;;5054580;28;20094;-59
2021/05/27 06:04:14;;;;;;;3.22;1.65;;;;;;;;;;5054802;28;20021;-59
2021/05/27 06:06:51;;;;;;;2.35;1.45;;;;;;;;;;5035964;28;20493;-59
2021/05/27 06:09:23;;;;;;;2.45;1.50;;;;;;;;;;5036245;28;20394;-59
2021/05/27 06:11:49;;;;;;;1.90;1.00;;;;;;;;;;5069778;28;20129;-59
2021/05/27 06:14:19;;;;;;;1.80;1.17;;;;;;;;;;5052627;28;20485;-58
2021/05/27 06:16:45;;;;;;;2.67;1.85;;;;;;;;;;5053841;28;20031;-59
2021/05/27 06:19:11;;;;;;;2.53;1.52;;;;;;;;;;5036050;28;20040;-58
2021/05/27 06:21:40;;;;;;;2.60;0.98;;;;;;;;;;5054351;28;20450;-58
2021/05/27 06:24:10;;;;;;;1.90;1.05;;;;;;;;;;5052851;28;20025;-58
2021/05/27 06:26:36;;;;;;;2.00;0.98;;;;;;;;;;5054072;28;20070;-58
2021/05/27 06:29:05;;;;;;;3.55;1.27;;;;;;;;;;5069729;28;20102;-58
2021/05/27 06:31:35;;;;;;;1.55;0.88;;;;;;;;;;5069053;28;20025;-57
2021/05/27 06:34:02;;;;;;;2.95;1.40;;;;;;;;;;5054540;28;20052;-58
2021/05/27 06:36:32;;;;;;;1.83;1.00;;;;;;;;;;5053978;28;20379;-56
2021/05/27 06:39:06;;;;;;;1.88;1.02;;;;;;;;;;5052085;28;20126;-58
2021/05/27 06:41:47;;;;;;;2.38;1.38;;;;;;;;;;5054237;28;20025;-58
2021/05/27 06:44:13;;;;;;;2.10;1.20;;;;;;;;;;5054636;28;20064;-58
2021/05/27 06:46:39;;;;;;;3.83;1.30;;;;;;;;;;5035789;28;20190;-58
2021/05/27 06:49:06;;;;;;;1.30;0.70;;;;;;;;;;5035543;28;20506;-58
2021/05/27 06:51:33;;;;;;;1.95;1.33;;;;;;;;;;5036021;28;20028;-58
2021/05/27 06:53:59;;;;;;;2.08;0.75;;;;;;;;;;5054284;28;20025;-57
2021/05/27 06:56:28;;;;;;;2.00;1.00;;;;;;;;;;5053664;28;20021;-58
2021/05/27 06:59:05;;;;;;;1.45;0.85;;;;;;;;;;5035562;28;20029;-58
2021/05/27 07:01:31;;;;;;;2.50;1.20;;;;;;;;;;5054462;28;20036;-58
2021/05/27 07:04:07;;;;;;;2.30;0.80;;;;;;;;;;5035735;28;20115;-58
2021/05/27 07:06:33;;;;;;;3.85;1.17;;;;;;;;;;5054001;28;20406;-58
2021/05/27 07:08:59;;;;;;;2.15;1.38;;;;;;;;;;5053629;28;20037;-59
2021/05/27 07:11:25;;;;;;;3.72;1.00;;;;;;;;;;5054125;28;20418;-58
2021/05/27 07:13:55;;;;;;;1.55;0.70;;;;;;;;;;5053432;28;20344;-58
2021/05/27 07:16:21;;;;;;;2.43;0.93;;;;;;;;;;5053946;28;20079;-58
2021/05/27 07:18:48;;;;;;;2.47;1.20;;;;;;;;;;5053268;28;20055;-58
2021/05/27 07:21:16;;;;;;;1.73;1.05;;;;;;;;;;5053064;28;20029;-58
2021/05/27 07:23:42;;;;;;;2.08;0.95;;;;;;;;;;5053314;28;20429;-58
2021/05/27 07:26:08;;;;;;;1.45;0.85;;;;;;;;;;5035165;28;20029;-57
2021/05/27 07:28:36;;;;;;;2.38;1.00;;;;;;;;;;5054416;28;20510;-58
2021/05/27 07:31:06;;;;;;;4.20;0.70;;;;;;;;;;5057517;28;20108;-58
2021/05/27 07:33:32;;;;;;;1.63;1.00;;;;;;;;;;5057005;28;20554;-58
2021/05/27 07:36:04;;;;;;;2.60;0.77;;;;;;;;;;5039136;28;20032;-58
2021/05/27 07:38:35;;;;;;;1.52;0.90;;;;;;;;;;5040095;28;20032;-59
2021/05/27 07:41:04;;;;;;;2.13;0.98;;;;;;;;;;5055482;28;20094;-59
2021/05/27 07:43:30;;;;;;;2.85;1.08;;;;;;;;;;5039606;28;20098;-59
2021/05/27 07:46:01;;;;;;;1.35;0.70;;;;;;;;;;5057510;28;20036;-59
2021/05/27 07:48:33;;;;;;;;;;;;;;;;;;5057319;28;20501;-59
2021/05/27 07:50:59;;;;;;;4.28;1.50;;;;;;;;;;5057468;28;19908;-59
2021/05/27 07:53:30;;;;;;;1.60;0.90;;;;;;;;;;5057205;28;20025;-59
2021/05/27 07:55:56;;;;;;;2.22;0.77;;;;;;;;;;5039961;28;20079;-59
2021/05/27 07:58:25;;;;;;;4.35;1.27;;;;;;;;;;5038691;28;20029;-59
2021/05/27 08:00:51;;;;;;;3.92;0.93;;;;;;;;;;5057665;28;20033;-59
2021/05/27 08:03:17;;;;;;;1.70;0.88;;;;;;;;;;5072666;28;20025;-59
2021/05/27 08:05:46;;;;;;;1.42;0.60;;;;;;;;;;5055006;28;20104;-59
2021/05/27 08:08:12;;;;;;;3.47;1.15;;;;;;;;;;5056668;28;20029;-59
2021/05/27 08:10:39;;;;;;;1.70;0.95;;;;;;;;;;5056439;28;20024;-59
2021/05/27 08:13:07;;;;;;;2.55;1.35;;;;;;;;;;5038563;28;20021;-59
2021/05/27 08:15:33;;;;;;;1.60;0.85;;;;;;;;;;5057269;28;20024;-59
2021/05/27 08:18:00;;;;;;;2.58;0.98;;;;;;;;;;5039030;28;20048;-59
2021/05/27 08:20:26;;;;;;;1.75;1.00;;;;;;;;;;5056497;28;20029;-59
2021/05/27 08:22:52;;;;;;;1.98;1.10;;;;;;;;;;5057413;28;20439;-59
2021/05/27 08:25:18;;;;;;;1.50;1.08;;;;;;;;;;5038321;28;20029;-59
2021/05/27 08:27:44;;;;;;;1.52;0.98;;;;;;;;;;5056308;28;20040;-59
2021/05/27 08:30:14;;;;;;;2.60;1.23;;;;;;;;;;5056027;28;20099;-58
2021/05/27 08:32:43;;;;;;;1.70;0.98;;;;;;;;;;5056718;28;20466;-59
2021/05/27 08:35:09;;;;;;;1.63;0.95;;;;;;;;;;5055891;28;20525;-59
2021/05/27 08:37:35;;;;;;;2.42;0.98;;;;;;;;;;5056014;28;20037;-59
2021/05/27 08:40:03;;;;;;;1.30;0.68;;;;;;;;;;5037779;28;20033;-59
2021/05/27 08:42:30;;;;;;;4.07;1.02;;;;;;;;;;5038003;28;20025;-59
2021/05/27 08:44:59;;;;;;;2.15;1.00;;;;;;;;;;5071807;28;20100;-58
2021/05/27 08:47:25;;;;;;;2.25;1.02;;;;;;;;;;5055737;28;20052;-59
2021/05/27 08:49:53;;;;;;;3.13;1.55;;;;;;;;;;5056005;28;20075;-59
2021/05/27 08:52:21;;;;;;;3.13;1.05;;;;;;;;;;5055940;28;20119;-58
2021/05/27 08:54:48;;;;;;;1.15;0.70;;;;;;;;;;5055522;28;20033;-59
2021/05/27 08:57:16;;;;;;;1.20;0.65;;;;;;;;;;5055845;28;20029;-59
2021/05/27 08:59:45;;;;;;;2.47;1.05;;;;;;;;;;5071428;28;20028;-59
2021/05/27 09:02:12;;;;;;;3.08;1.50;;;;;;;;;;5054027;28;20036;-59
2021/05/27 09:04:39;;;;;;;2.38;1.10;;;;;;;;;;5038258;28;20028;-59
2021/05/27 09:07:08;;;;;;;3.47;1.20;;;;;;;;;;5055530;28;20115;-59
2021/05/27 09:09:58;;;;;;;2.85;1.20;;;;;;;;;;5055545;28;20107;-59
2021/05/27 09:12:25;;;;;;;2.00;0.82;;;;;;;;;;5030198;28;20040;-58
2021/05/27 09:14:52;;;;;;;2.22;1.33;;;;;;;;;;5055471;28;20029;-58
2021/05/27 09:17:21;;;;;;;5.00;1.02;;;;;;;;;;5037336;28;20032;-59
2021/05/27 09:20:06;;;;;;;1.65;0.95;;;;;;;;;;5070396;28;20104;-59
2021/05/27 09:22:32;;;;;;;1.33;0.65;;;;;;;;;;5056283;28;20347;-59
2021/05/27 09:24:58;;;;;;;3.53;0.77;;;;;;;;;;5037960;28;20036;-59
2021/05/27 09:27:44;;;;;;;1.55;0.70;;;;;;;;;;5054731;28;20540;-58
2021/05/27 09:30:11;;;;;;;2.78;0.80;;;;;;;;;;5030222;28;20044;-59
2021/05/27 09:32:40;;;;;;;2.42;0.98;;;;;;;;;;5055391;28;20037;-59
2021/05/27 09:35:09;;;;;;;1.30;0.70;;;;;;;;;;5054910;28;20112;-58
2021/05/27 09:37:35;;;;;;;3.47;0.90;;;;;;;;;;5055070;28;20083;-58
2021/05/27 09:40:02;;;;;;;2.05;1.13;;;;;;;;;;5037478;28;20119;-59
2021/05/27 09:42:29;;;;;;;1.70;0.90;;;;;;;;;;5037757;28;20024;-58
2021/05/27 09:44:55;;;;;;;2.15;0.85;;;;;;;;;;5037590;28;20414;-58
2021/05/27 09:47:32;;;;;;;1.98;0.70;;;;;;;;;;5054933;28;20138;-58
2021/05/27 09:49:59;;;;;;;2.03;0.93;;;;;;;;;;5037346;28;20366;-58
2021/05/27 09:52:26;;;;;;;3.88;1.13;;;;;;;;;;5036920;28;20382;-59
2021/05/27 09:54:56;;;;;;;4.43;1.13;;;;;;;;;;5054571;28;20052;-59
2021/05/27 09:57:23;;;;;;;5.22;0.93;;;;;;;;;;5054773;28;20063;-59
2021/05/27 09:59:50;;;;;;;3.95;0.88;;;;;;;;;;5054631;28;20021;-59
2021/05/27 10:02:17;;;;;;;1.60;0.93;;;;;;;;;;5054734;28;20025;-59
2021/05/27 10:04:58;;;;;;;2.42;0.70;;;;;;;;;;5069553;28;20029;-59
2021/05/27 10:07:36;;;;;;;1.55;0.60;;;;;;;;;;5054456;28;20083;-59
2021/05/27 10:10:03;;;;;;;1.13;0.70;;;;;;;;;;5037264;28;20056;-59
2021/05/27 10:12:30;;;;;;;1.45;0.57;;;;;;;;;;5055204;28;20378;-59
2021/05/27 10:14:56;;;;;;;1.13;0.43;;;;;;;;;;5036615;28;20082;-59
2021/05/27 10:17:22;;;;;;;1.30;0.70;;;;;;;;;;5069971;28;20028;-59
2021/05/27 10:19:49;;;;;;;3.88;0.80;;;;;;;;;;5054759;28;20039;-59
2021/05/27 10:22:15;;;;;;;1.85;0.70;;;;;;;;;;5052899;28;20025;-59
2021/05/27 10:24:42;;;;;;;2.38;0.85;;;;;;;;;;5036424;28;20028;-58
2021/05/27 10:27:08;;;;;;;1.77;0.73;;;;;;;;;;5054274;28;20021;-58
2021/05/27 10:29:35;;;;;;;1.40;0.70;;;;;;;;;;5054326;28;20075;-58
2021/05/27 10:32:02;;;;;;;1.35;0.68;;;;;;;;;;5054383;28;20344;-58
2021/05/27 10:34:42;;;;;;;2.40;0.68;;;;;;;;;;5054871;28;20029;-58
2021/05/27 10:37:08;;;;;;;3.60;0.75;;;;;;;;;;5053951;28;20021;-59
2021/05/27 10:39:36;;;;;;;5.68;0.75;;;;;;;;;;5054187;28;20025;-59
2021/05/27 10:42:02;;;;;;;2.05;0.60;;;;;;;;;;5052218;28;20464;-59
2021/05/27 10:44:29;;;;;;;2.03;0.82;;;;;;;;;;5053731;28;20035;-59
2021/05/27 10:46:55;;;;;;;1.17;0.68;;;;;;;;;;5053808;28;20049;-59
2021/05/27 10:49:42;;;;;;;2.28;0.90;;;;;;;;;;5053891;28;20490;-58
2021/05/27 10:52:26;;;;;;;1.45;0.80;;;;;;;;;;5043253;28;20044;-59
2021/05/27 10:54:53;;;;;;;2.67;0.95;;;;;;;;;;5053653;28;20108;-60
2021/05/27 10:57:48;;;;;;;1.27;0.88;;;;;;;;;;5053632;28;20021;-60
2021/05/27 11:00:14;;;;;;;5.60;0.80;;;;;;;;;;5040720;28;20029;-60
2021/05/27 11:02:40;;;;;;;2.35;1.10;;;;;;;;;;5053318;28;20367;-60
2021/05/27 11:05:16;;;;;;;2.35;1.05;;;;;;;;;;5054056;28;20025;-59
2021/05/27 11:07:42;;;;;;;1.85;1.00;;;;;;;;;;5068909;28;20033;-60
2021/05/27 11:10:27;;;;;;;3.85;0.88;;;;;;;;;;5053567;28;20108;-58
2021/05/27 11:13:06;;;;;;;1.65;0.85;;;;;;;;;;5053510;28;20017;-58
2021/05/27 11:15:32;;;;;;;1.67;0.90;;;;;;;;;;5053695;28;20481;-58
2021/05/27 11:18:02;;;;;;;3.20;1.30;;;;;;;;;;5053435;28;20021;-59
2021/05/27 11:20:30;;;;;;;1.73;0.90;;;;;;;;;;5036095;28;20033;-58
2021/05/27 11:23:02;;;;;;;1.73;0.63;;;;;;;;;;5053904;28;20306;-58
2021/05/27 11:25:31;;;;;;;2.30;0.80;;;;;;;;;;5054687;28;20111;-58
2021/05/27 11:28:03;;;;;;;1.67;0.70;;;;;;;;;;5068596;28;20102;-60
2021/05/27 11:30:33;;;;;;;1.63;0.77;;;;;;;;;;5035213;28;20029;-58
2021/05/27 11:33:02;;;;;;;2.55;0.68;;;;;;;;;;5035715;28;20020;-57
2021/05/27 11:35:29;;;;;;;1.50;0.57;;;;;;;;;;5053591;28;20025;-59
2021/05/27 11:37:55;;;;;;;1.23;0.70;;;;;;;;;;5053212;28;20483;-58
2021/05/27 11:40:22;;;;;;;1.23;0.68;;;;;;;;;;5053050;28;20107;-59
2021/05/27 11:42:50;;;;;;;2.42;0.70;;;;;;;;;;5053796;28;20486;-59
2021/05/27 11:45:16;;;;;;;1.17;0.68;;;;;;;;;;5053302;28;20036;-58
2021/05/27 11:47:43;;;;;;;1.73;0.68;;;;;;;;;;5052569;28;20047;-59
2021/05/27 11:50:13;;;;;;;1.85;0.90;;;;;;;;;;5035213;28;20036;-59
2021/05/27 11:52:40;;;;;;;3.05;1.13;;;;;;;;;;5053347;28;20025;-59
2021/05/27 11:55:07;;;;;;;4.07;1.05;;;;;;;;;;5053471;28;20025;-58
2021/05/27 11:57:40;;;;;;;1.60;0.70;;;;;;;;;;5036081;28;20028;-59
2021/05/27 12:00:07;;;;;;;2.20;0.82;;;;;;;;;;5053138;28;20017;-58
2021/05/27 12:02:46;;;;;;;1.60;0.90;;;;;;;;;;5053637;28;20022;-59
2021/05/27 12:05:32;;;;;;;2.30;1.02;;;;;;;;;;5035158;28;20021;-59
2021/05/27 12:08:05;;;;;;;1.30;0.70;;;;;;;;;;5052900;28;20352;-59
2021/05/27 12:10:36;;;;;;;2.03;0.75;;;;;;;;;;5053577;28;20025;-58
2021/05/27 12:13:02;;;;;;;;;;;;;;;;;;5051889;28;20037;-59
2021/05/27 12:15:28;;;;;;;1.52;0.73;;;;;;;;;;5055672;28;19905;-59
2021/05/27 12:17:57;;;;;;;3.33;0.95;;;;;;;;;;5056555;28;20043;-59
2021/05/27 12:20:36;;;;;;;1.33;0.68;;;;;;;;;;5056912;28;20025;-59
2021/05/27 12:23:06;;;;;;;6.25;1.02;;;;;;;;;;5056589;28;20028;-59
2021/05/27 12:25:34;;;;;;;1.60;0.90;;;;;;;;;;5056570;28;20367;-59
2021/05/27 12:28:01;;;;;;;2.47;0.98;;;;;;;;;;5056018;28;20041;-59
2021/05/27 12:30:29;;;;;;;1.55;0.80;;;;;;;;;;5038251;28;20083;-59
2021/05/27 12:32:56;;;;;;;1.40;0.57;;;;;;;;;;5056690;28;20052;-59
2021/05/27 12:35:32;;;;;;;1.23;0.68;;;;;;;;;;5056354;28;20029;-59
2021/05/27 12:37:59;;;;;;;0.50;0.30;;;;;;;;;;5056157;28;20029;-59
2021/05/27 12:40:28;;;;;;;1.10;0.60;;;;;;;;;;5056297;28;20113;-59
2021/05/27 12:42:55;;;;;;;3.00;0.60;;;;;;;;;;5056140;28;20021;-59
2021/05/27 12:45:30;;;;;;;1.30;0.60;;;;;;;;;;5038290;28;20052;-59
2021/05/27 12:48:05;;;;;;;1.52;0.70;;;;;;;;;;5056246;28;20045;-59
2021/05/27 12:50:32;;;;;;;1.42;0.70;;;;;;;;;;5055932;28;20040;-59
2021/05/27 12:52:58;;;;;;;1.30;0.73;;;;;;;;;;5038545;28;20033;-59
2021/05/27 12:55:28;;;;;;;1.80;0.80;;;;;;;;;;5056384;28;20108;-59
2021/05/27 12:57:56;;;;;;;2.83;0.70;;;;;;;;;;5056037;28;20455;-58
2021/05/27 13:00:22;;;;;;;0.95;0.55;;;;;;;;;;5055712;28;20112;-58
2021/05/27 13:03:01;;;;;;;1.27;0.57;;;;;;;;;;5055850;28;20078;-59
2021/05/27 13:05:28;;;;;;;1.25;0.63;;;;;;;;;;5055867;28;20032;-59
2021/05/27 13:07:55;;;;;;;1.77;0.75;;;;;;;;;;5055709;28;20055;-59
2021/05/27 13:10:41;;;;;;;0.77;0.35;;;;;;;;;;5055681;28;20025;-59
2021/05/27 13:13:08;;;;;;;1.85;0.70;;;;;;;;;;5056400;28;20033;-59
2021/05/27 13:15:41;;;;;;;1.35;0.80;;;;;;;;;;5055571;28;20356;-60
2021/05/27 13:18:09;;;;;;;1.67;0.75;;;;;;;;;;5037652;28;20041;-60
2021/05/27 13:20:54;;;;;;;1.20;0.63;;;;;;;;;;5055537;28;20021;-59
2021/05/27 13:23:27;;;;;;;0.80;0.43;;;;;;;;;;5055559;28;20083;-59
2021/05/27 13:25:53;;;;;;;1.92;0.85;;;;;;;;;;5054146;28;20430;-59
2021/05/27 13:28:23;;;;;;;1.58;0.50;;;;;;;;;;5055483;28;20032;-59
2021/05/27 13:30:50;;;;;;;0.87;0.50;;;;;;;;;;5055382;28;20112;-59
2021/05/27 13:33:18;;;;;;;1.38;0.75;;;;;;;;;;5054976;28;20259;-59
2021/05/27 13:35:45;;;;;;;1.88;0.90;;;;;;;;;;5055247;28;20029;-59
2021/05/27 13:38:13;;;;;;;1.60;1.08;;;;;;;;;;5055447;28;20033;-59
2021/05/27 13:40:39;;;;;;;2.15;0.82;;;;;;;;;;5037125;28;20031;-59
2021/05/27 13:43:05;;;;;;;3.72;0.90;;;;;;;;;;5055600;28;20155;-59
2021/05/27 13:45:32;;;;;;;1.05;0.60;;;;;;;;;;5054922;28;20025;-59
2021/05/27 13:47:58;;;;;;;0.98;0.60;;;;;;;;;;5054729;28;20056;-59
2021/05/27 13:50:28;;;;;;;1.92;1.05;;;;;;;;;;5037303;28;20025;-59
2021/05/27 13:52:54;;;;;;;0.80;0.40;;;;;;;;;;5070086;28;20029;-59
2021/05/27 13:55:23;;;;;;;1.20;0.70;;;;;;;;;;5054770;28;20083;-59
2021/05/27 13:57:49;;;;;;;1.38;0.50;;;;;;;;;;5054703;28;20108;-59
2021/05/27 14:00:15;;;;;;;4.97;0.80;;;;;;;;;;5054618;28;20032;-59
2021/05/27 14:02:42;;;;;;;1.38;0.68;;;;;;;;;;5054925;28;20422;-59
2021/05/27 14:05:08;;;;;;;0.98;0.60;;;;;;;;;;5055007;28;20074;-59
2021/05/27 14:07:34;;;;;;;1.48;0.70;;;;;;;;;;5054644;28;20431;-59
2021/05/27 14:10:00;;;;;;;1.15;0.50;;;;;;;;;;5054491;28;20474;-59
2021/05/27 14:12:26;;;;;;;1.67;0.73;;;;;;;;;;5055106;28;20060;-59
2021/05/27 14:14:52;;;;;;;2.25;0.60;;;;;;;;;;5037478;28;20056;-59
2021/05/27 14:17:19;;;;;;;1.27;0.80;;;;;;;;;;5054505;28;20107;-59
2021/05/27 14:19:45;;;;;;;1.92;0.70;;;;;;;;;;5054410;28;20362;-59
2021/05/27 14:22:11;;;;;;;1.30;0.70;;;;;;;;;;5036497;28;20071;-59
2021/05/27 14:24:37;;;;;;;0.95;0.50;;;;;;;;;;5054271;28;20479;-59
2021/05/27 14:27:03;;;;;;;2.25;0.90;;;;;;;;;;5054331;28;20029;-59
2021/05/27 14:29:30;;;;;;;0.75;0.40;;;;;;;;;;5054039;28;20126;-59
2021/05/27 14:31:56;;;;;;;1.33;0.77;;;;;;;;;;5036761;28;20072;-59
2021/05/27 14:34:23;;;;;;;0.70;0.32;;;;;;;;;;5069597;28;20518;-59
2021/05/27 14:36:53;;;;;;;2.17;0.90;;;;;;;;;;5053539;28;20053;-59
2021/05/27 14:39:20;;;;;;;1.65;0.70;;;;;;;;;;5054108;28;20036;-59
2021/05/27 14:41:46;;;;;;;1.58;0.82;;;;;;;;;;5053968;28;20060;-59
2021/05/27 14:44:12;;;;;;;1.25;0.50;;;;;;;;;;5053785;28;20108;-59
2021/05/27 14:46:38;;;;;;;1.08;0.50;;;;;;;;;;5053283;28;20060;-59
2021/05/27 14:49:05;;;;;;;0.95;0.60;;;;;;;;;;5054180;28;20083;-59
2021/05/27 14:51:32;;;;;;;1.45;0.73;;;;;;;;;;5036109;28;20033;-59
2021/05/27 14:53:58;;;;;;;1.63;0.75;;;;;;;;;;5054236;28;20025;-59
2021/05/27 14:56:24;;;;;;;1.58;0.80;;;;;;;;;;5035983;28;20120;-60
2021/05/27 14:58:50;;;;;;;1.25;0.52;;;;;;;;;;5053836;28;20502;-60
2021/05/27 15:01:16;;;;;;;1.25;0.60;;;;;;;;;;5053678;28;20025;-60
2021/05/27 15:03:42;;;;;;;1.80;0.52;;;;;;;;;;5053665;28;20048;-60
2021/05/27 15:06:12;;;;;;;1.27;0.70;;;;;;;;;;5053761;28;20025;-59
2021/05/27 15:08:38;;;;;;;1.83;0.65;;;;;;;;;;5053649;28;20061;-60
2021/05/27 15:11:08;;;;;;;1.00;0.50;;;;;;;;;;5054262;28;20032;-58
2021/05/27 15:13:34;;;;;;;3.10;0.80;;;;;;;;;;5053527;28;20051;-59
2021/05/27 15:16:00;;;;;;;1.48;0.90;;;;;;;;;;5053932;28;20078;-59
2021/05/27 15:18:32;;;;;;;2.78;0.95;;;;;;;;;;5053589;28;20505;-58
2021/05/27 15:20:58;;;;;;;1.48;0.80;;;;;;;;;;5053231;28;20493;-58